Airfield :
LOGIN :

Register | Disclaimer

   EN    FR    IT 

 










Legend :    VFR   Marginal VFR   IFR   Intensive IFR   Very Intensive IFR
Visi :
Ceiling :
>= 8 km
>= 3000ft
5 to 8 km
1000 to 3000 ft
1500m to 5 km
500 to 1000 ft
800 to 1500m
200 to 500 ft
< 800m
< 200 ft
Symbols :   Thunderstorms  Fog  Heavy snow  Heavy precipitations  Wind > 20 kt
SIGMETs :     Misc.  Thunderstorms  Icing  Turbulence  Mountain Waves  Volcanic Ashes







- Airport Elevation : 240 ft
- IATA code : VLC


LEVC - Valencia Manises

CURRENT METAR :
  • 211130Z 10011KT 060V140 9999 FEW030 29/16 Q1014 NOSIG

EXPIRED METARs :
  • 211100Z 09009KT 060V120 9999 FEW030 29/17 Q1014 NOSIG
  • 211030Z 09008KT 060V150 9999 SCT030 29/17 Q1014 NOSIG
  • 211000Z 11007KT 060V160 9999 FEW025 SCT030 29/18 Q1014 NOSIG
  • 210930Z VRB06KT 9999 FEW025 SCT035 28/18 Q1014 NOSIG
  • 210900Z 10004KT 060V160 9999 FEW025 SCT035 28/18 Q1014 NOSIG

TAF TAF LEVC
Valid from the 21 at 12:00 until the 22 at 12:00 UTC


211100Z 2112/2212 10010KT 9999 SCT030 TX28/2113Z TN21/2205Z
BECMG 2118/2120 05005KT SCT020
TEMPO 2121/2206 FEW018TCU BKN020
BECMG 2210/2212 07010KT
TEMPO 2206/2212 4000 SHRA FEW018TCU BKN020
No reported NOTAMs for that airfield.



MET'MAP, your aeronautical weather chart ! - Copyright ORBIFLY December 2007 - Disclaimer

ORBIFLY MET'MAP TEAM :

Programming & Development : Alexandra Zaïnal
Concept & Development : Baudouin d'Aumeries
Co-Development & Prog : Marc-Olivier Méhu
Technical & hardware support : Manuel Goepfert

Contact : metmap@orbifly.com




SOURCES & CREDITS :

   NOAA